FACTFAOB

Guest
Details From FACT - Cape Town International
To FAOB - Overberg
Flight Number -
Tags generated
Created
Modified
Stats Distance 89 nm / 165 km
Max Altitude 0 ft / 0 m
Waypoints 3
Social Downloads 1
Likes 0
Share VATSIM

Download

Looking for another format? Having issues loading an existing format? Contact us
Advertisement - Login to hide

Notes

Basic altitude profile: - Ascent Rate: 2500ft/min - Ascent Speed: 250kts - Cruise Altitude: 12000ft - Cruise Speed: 320kts - Descent Rate: 2500ft/min - Descent Speed: 250kts Options: - Use NATs: no - Use PACOTS: no - Use low airways: yes - Use high airways: no

Route

FACT CTV FAOB

ID Type Via Altitude Latitude Longitude Leg Dist Tot Dist Heading (true) Name
O FACT APT - 0 ft / 0 m -33.97050˚ 18.60440˚ - 0 nm - Cape Town International
CTV VOR - 0 ft / 0 m -33.96953˚ 18.60503˚ 0 nm 0 nm 28° / 28° CAPE TOWN VORTAC
O FAOB APT - 0 ft / 0 m -34.56154˚ 20.25005˚ 89 nm 89 nm 114° / 113° Overberg

Altitude Profile

Advertisement - Login to hide

FACT

Details ICAO FACT (CPT)
Name Cape Town International
Region South Africa
Timezone Africa/Johannesburg (UTC+2.0)
Stats Elevation 151 ft / 46 m (AMSL)
Location -33.970501° 18.604405°
Runways 2
Magnetic Variation 25.343° W

METAR

FACT 130700Z 33010KT 9999 BKN020 BKN030 15/12 Q1016 NOSIG

Decode

TAF

Not found

Departure Runways

ID Width Length Bearing (true) Bearing (mag) Surface Threshold Offset Overrun Length
01 200 ft / 61 m 10,527 ft / 3,209 m 345.27° 10.61° Asphalt 0 ft / 0 m 195 ft / 59 m
16 151 ft / 46 m 5,586 ft / 1,703 m 135.35° 160.69° Asphalt 300 ft / 91 m 0 ft / 0 m
19 200 ft / 61 m 10,527 ft / 3,209 m 165.27° 190.61° Asphalt 0 ft / 0 m 195 ft / 59 m
34 151 ft / 46 m 5,586 ft / 1,703 m 315.35° 340.69° Asphalt 300 ft / 91 m 0 ft / 0 m

FAOB

Details ICAO FAOB
Name Overberg
Region South Africa
Timezone Africa/Johannesburg (UTC+2.0)
Stats Elevation 52 ft / 16 m (AMSL)
Location -34.561543° 20.250053°
Runways 2
Magnetic Variation 26.573° W

METAR

FAOB 130700Z AUTO 32012KT //// // ////// 21/09 Q1012

Decode

TAF

Not found

Destination Runways

ID Width Length Bearing (true) Bearing (mag) Surface Threshold Offset Overrun Length
10 131 ft / 40 m 6,933 ft / 2,113 m 75.32° 101.89° Asphalt 0 ft / 0 m 950 ft / 290 m
17 151 ft / 46 m 10,230 ft / 3,118 m 145.55° 172.12° Asphalt 0 ft / 0 m 950 ft / 290 m
28 131 ft / 40 m 6,933 ft / 2,113 m 255.30° 281.87° Asphalt 0 ft / 0 m 950 ft / 290 m
35 151 ft / 46 m 10,230 ft / 3,118 m 325.53° 352.10° Asphalt 0 ft / 0 m 950 ft / 290 m

Popular Alternatives